Ext Marisol, Puerto Rico
Current Conditions -  °F | °C
As of 8:50 AM on Sunday 21 Dec 2014 (Local Time) from TJBQ Reporting Station
Clear Clear  
Wind Chill: 77°   Ceiling: Unl
Heat Index: 79°   Visibility: 10mi
Dew Point: 68°   Wind: 12mph
Humidity: 74%   Direction: 100°E
Pressure: 30.08"   Gusts: NA
Location:  18.4739°N, 66.7295°W
Report Text: TJBQ 211250Z 10010KT 10SM SKC 25/20 A3008 RMK RWY 8 ATIS X
Loading
Personal Weather Stations






























Interactive Weather Map New forecast layout! Learn more

10-Day Weather Forecast

Advertisements
Track Severe Weather on mobile